createdAt,value
2023-05-04T00:01:41.208Z,2.30
2023-05-04T00:04:10.600Z,2.03
2023-05-04T00:06:38.759Z,2.00
2023-05-04T00:09:07.184Z,1.77
2023-05-04T00:11:35.236Z,1.80
2023-05-04T00:14:03.137Z,2.10
2023-05-04T00:16:31.230Z,1.83
2023-05-04T00:18:58.981Z,2.47
2023-05-04T00:21:28.153Z,2.27
2023-05-04T00:23:55.877Z,1.73
2023-05-04T00:26:23.638Z,1.80
2023-05-04T00:28:51.339Z,2.10
2023-05-04T00:31:19.632Z,2.33
2023-05-04T00:33:47.480Z,2.03
2023-05-04T00:36:15.248Z,2.10
2023-05-04T00:38:51.306Z,2.13
2023-05-04T00:41:20.633Z,2.30
2023-05-04T00:43:48.838Z,2.10
2023-05-04T00:46:17.000Z,2.17
2023-05-04T00:48:48.072Z,2.43
2023-05-04T00:51:16.760Z,2.10
2023-05-04T00:53:44.552Z,2.30
2023-05-04T00:56:13.930Z,2.00
2023-05-04T00:58:41.638Z,2.10
2023-05-04T01:01:09.654Z,2.10
2023-05-04T01:03:37.436Z,2.30
2023-05-04T01:06:13.664Z,2.07
2023-05-04T01:08:44.948Z,2.20
2023-05-04T01:11:19.822Z,2.13
2023-05-04T01:13:48.153Z,2.27
2023-05-04T01:16:16.056Z,2.33
2023-05-04T01:18:43.884Z,2.20
2023-05-04T01:21:11.623Z,2.37
2023-05-04T01:23:40.727Z,2.60
2023-05-04T01:26:12.345Z,2.00
2023-05-04T01:28:43.530Z,2.43
2023-05-04T01:31:17.178Z,2.40
2023-05-04T01:33:45.957Z,2.37
2023-05-04T01:36:13.811Z,2.10
2023-05-04T01:38:43.299Z,2.70
2023-05-04T01:41:11.047Z,2.20
2023-05-04T01:43:38.778Z,2.10
2023-05-04T01:46:06.667Z,2.53
2023-05-04T01:48:34.485Z,2.50
2023-05-04T01:51:02.290Z,2.40
2023-05-04T01:53:30.627Z,2.70
2023-05-04T01:55:59.745Z,2.77
2023-05-04T01:58:27.520Z,2.20
2023-05-04T02:00:55.434Z,2.40
2023-05-04T02:03:23.236Z,2.57
2023-05-04T02:05:51.172Z,2.40
2023-05-04T02:08:18.918Z,2.60
2023-05-04T02:10:46.847Z,2.30
2023-05-04T02:13:16.218Z,2.50
2023-05-04T02:15:44.008Z,2.80
2023-05-04T02:18:11.922Z,2.70
2023-05-04T02:20:39.908Z,2.77
2023-05-04T02:23:07.634Z,2.63
2023-05-04T02:25:35.415Z,2.77
2023-05-04T02:28:03.138Z,2.40
2023-05-04T02:30:32.254Z,2.70
2023-05-04T02:33:00.027Z,2.67
2023-05-04T02:35:27.808Z,2.63
2023-05-04T02:37:55.547Z,2.47
2023-05-04T02:40:23.329Z,2.60
2023-05-04T02:42:51.104Z,2.83
2023-05-04T02:45:19.046Z,2.70
2023-05-04T02:47:48.300Z,2.80
2023-05-04T02:50:16.113Z,2.60
2023-05-04T02:52:43.849Z,2.83
2023-05-04T02:55:11.656Z,2.50
2023-05-04T02:57:39.443Z,2.80
2023-05-04T03:00:08.633Z,2.60
2023-05-04T03:02:36.452Z,2.90
2023-05-04T03:05:06.495Z,2.50
2023-05-04T03:07:34.280Z,2.77
2023-05-04T03:10:02.086Z,2.87
2023-05-04T03:12:30.114Z,2.70
2023-05-04T03:14:57.995Z,3.23
2023-05-04T03:17:25.834Z,2.83
2023-05-04T03:19:53.588Z,2.83
2023-05-04T03:22:22.748Z,2.60
2023-05-04T03:24:50.537Z,2.90
2023-05-04T03:27:18.287Z,2.73
2023-05-04T03:29:46.065Z,3.10
2023-05-04T03:32:14.176Z,3.17
2023-05-04T03:34:41.988Z,3.10
2023-05-04T03:37:09.767Z,3.00
2023-05-04T03:39:38.870Z,3.30
2023-05-04T03:42:06.716Z,3.30
2023-05-04T03:44:34.501Z,3.47
2023-05-04T03:47:02.272Z,3.17
2023-05-04T03:49:29.993Z,3.30
2023-05-04T03:51:57.809Z,3.10
2023-05-04T03:54:26.356Z,3.30
2023-05-04T03:56:55.509Z,3.30
2023-05-04T03:59:23.244Z,4.00
2023-05-04T04:01:51.320Z,3.40
2023-05-04T04:04:19.156Z,3.50
2023-05-04T04:06:47.102Z,3.37
2023-05-04T04:09:14.921Z,3.57
2023-05-04T04:11:42.780Z,3.43
2023-05-04T04:14:12.335Z,3.47
2023-05-04T04:16:40.243Z,3.33
2023-05-04T04:19:08.165Z,3.17
2023-05-04T04:21:35.980Z,3.60
2023-05-04T04:24:03.794Z,3.50
2023-05-04T04:26:31.633Z,3.53
2023-05-04T04:28:59.389Z,3.20
2023-05-04T04:31:28.654Z,3.60
2023-05-04T04:33:56.502Z,3.80
2023-05-04T04:36:24.755Z,2.90
2023-05-04T04:38:52.518Z,3.40
2023-05-04T04:41:20.336Z,3.50
2023-05-04T04:43:48.115Z,3.53
2023-05-04T04:46:16.043Z,3.37
2023-05-04T04:48:45.146Z,3.70
2023-05-04T04:51:13.188Z,3.27
2023-05-04T04:53:40.935Z,3.67
2023-05-04T04:56:09.710Z,3.57
2023-05-04T04:58:37.586Z,3.80
2023-05-04T05:01:06.147Z,3.60
2023-05-04T05:03:33.937Z,3.70
2023-05-04T05:06:04.087Z,3.70
2023-05-04T05:08:33.784Z,3.90
2023-05-04T05:11:01.595Z,3.77
2023-05-04T05:13:29.385Z,3.87
2023-05-04T05:15:57.359Z,3.63
2023-05-04T05:18:25.162Z,3.67
2023-05-04T05:20:52.922Z,3.57
2023-05-04T05:23:22.088Z,4.17
2023-05-04T05:25:49.883Z,3.87
2023-05-04T05:28:17.701Z,4.00
2023-05-04T05:30:45.629Z,3.40
2023-05-04T05:33:13.872Z,3.50
2023-05-04T05:35:41.764Z,3.60
2023-05-04T05:38:09.536Z,3.47
2023-05-04T05:40:39.060Z,4.17
2023-05-04T05:43:06.910Z,3.73
2023-05-04T05:45:34.686Z,4.17
2023-05-04T05:48:02.629Z,4.37
2023-05-04T05:50:30.555Z,3.40
2023-05-04T05:52:58.357Z,3.80
2023-05-04T05:55:26.220Z,3.60
2023-05-04T05:57:55.403Z,4.03
2023-05-04T06:00:23.307Z,3.90
2023-05-04T06:02:51.576Z,3.87
2023-05-04T06:05:19.439Z,4.00
2023-05-04T06:07:47.277Z,3.93
2023-05-04T06:10:15.321Z,3.80
2023-05-04T06:12:43.201Z,3.87
2023-05-04T06:15:14.387Z,3.70
2023-05-04T06:17:42.373Z,3.67
2023-05-04T06:20:11.022Z,3.70
2023-05-04T06:22:38.876Z,3.83
2023-05-04T06:25:08.331Z,4.10
2023-05-04T06:27:36.412Z,3.73
2023-05-04T06:30:04.742Z,3.63
2023-05-04T06:32:34.184Z,4.00
2023-05-04T06:35:02.717Z,3.93
2023-05-04T06:37:30.875Z,4.23
2023-05-04T06:39:58.713Z,4.13
2023-05-04T06:42:30.053Z,4.07
2023-05-04T06:44:58.493Z,3.97
2023-05-04T06:47:26.355Z,4.27
2023-05-04T06:49:55.485Z,4.70
2023-05-04T06:52:23.345Z,4.30
2023-05-04T06:54:51.125Z,4.40
2023-05-04T06:57:18.936Z,4.00
2023-05-04T06:59:46.736Z,4.47
2023-05-04T07:02:14.559Z,4.60
2023-05-04T07:04:42.779Z,4.50
2023-05-04T07:07:12.004Z,4.33
2023-05-04T07:09:39.871Z,4.43
2023-05-04T07:12:07.954Z,4.30
2023-05-04T07:14:35.757Z,4.43
2023-05-04T07:17:03.515Z,4.03
2023-05-04T07:19:31.344Z,4.40
2023-05-04T07:22:00.315Z,4.40
2023-05-04T07:24:31.805Z,4.43
2023-05-04T07:26:59.627Z,4.10
2023-05-04T07:29:27.521Z,5.20
2023-05-04T07:31:55.530Z,4.50
2023-05-04T07:34:30.547Z,4.47
2023-05-04T07:37:01.982Z,4.33
2023-05-04T07:39:31.119Z,4.67
2023-05-04T07:41:58.914Z,4.07
2023-05-04T07:44:26.711Z,4.20
2023-05-04T07:46:54.520Z,4.27
2023-05-04T07:49:22.343Z,5.10
2023-05-04T07:51:50.194Z,4.80
2023-05-04T07:54:18.880Z,4.63
2023-05-04T07:56:49.010Z,4.53
2023-05-04T07:59:18.788Z,4.27
2023-05-04T08:01:50.077Z,4.70
2023-05-04T08:04:17.920Z,4.80
2023-05-04T08:06:46.554Z,4.53
2023-05-04T08:09:14.383Z,4.07
2023-05-04T08:11:42.354Z,4.00
2023-05-04T08:14:11.635Z,4.60
2023-05-04T08:16:39.791Z,5.30
2023-05-04T08:19:07.577Z,4.83
2023-05-04T08:21:35.379Z,4.07
2023-05-04T08:24:04.314Z,4.27
2023-05-04T08:26:32.351Z,3.90
2023-05-04T08:29:07.712Z,3.90
2023-05-04T08:31:37.807Z,4.40
2023-05-04T08:34:05.656Z,4.30
2023-05-04T08:36:33.501Z,4.37
2023-05-04T08:39:01.488Z,3.93
2023-05-04T08:41:29.362Z,4.30
2023-05-04T08:43:57.553Z,3.93
2023-05-04T08:46:25.814Z,3.50
2023-05-04T08:48:55.059Z,4.10
2023-05-04T08:51:23.185Z,3.90
2023-05-04T08:53:51.903Z,4.40
2023-05-04T08:56:20.180Z,4.20
2023-05-04T08:58:51.028Z,4.03
2023-05-04T09:01:19.868Z,5.13
2023-05-04T09:03:49.000Z,4.30
2023-05-04T09:06:19.484Z,4.60
2023-05-04T09:08:47.555Z,3.80
2023-05-04T09:11:15.292Z,4.10
2023-05-04T09:13:43.875Z,6.10
2023-05-04T09:16:14.048Z,4.57
2023-05-04T09:18:44.440Z,5.17
2023-05-04T09:21:12.517Z,4.90
2023-05-04T09:23:48.787Z,5.40
2023-05-04T09:26:16.635Z,5.60
2023-05-04T09:28:45.183Z,5.30
2023-05-04T09:31:13.062Z,4.30
2023-05-04T09:33:41.652Z,6.20
2023-05-04T09:36:17.087Z,5.40
2023-05-04T09:38:45.277Z,5.20
2023-05-04T09:41:14.531Z,5.40
2023-05-04T09:43:43.172Z,5.70
2023-05-04T09:46:17.388Z,5.53
2023-05-04T09:48:52.748Z,5.67
2023-05-04T09:51:22.570Z,6.07
2023-05-04T09:53:51.121Z,6.27
2023-05-04T09:56:27.955Z,5.53
2023-05-04T09:58:58.704Z,6.00
2023-05-04T10:01:29.060Z,6.07
2023-05-04T10:03:57.021Z,6.10
2023-05-04T10:06:25.206Z,6.10
2023-05-04T10:08:53.298Z,6.03
2023-05-04T10:11:25.758Z,6.17
2023-05-04T10:13:56.266Z,5.57
2023-05-04T10:16:34.802Z,6.33
2023-05-04T10:19:13.106Z,6.40
2023-05-04T10:21:50.026Z,5.43
2023-05-04T10:24:34.201Z,6.27
2023-05-04T10:27:10.676Z,5.40
2023-05-04T10:29:38.651Z,5.83
2023-05-04T10:32:07.955Z,6.03
2023-05-04T10:34:36.869Z,5.63
2023-05-04T10:37:04.904Z,5.87
2023-05-04T10:39:33.640Z,5.80
2023-05-04T10:42:04.038Z,5.77
2023-05-04T10:44:34.256Z,6.37
2023-05-04T10:47:03.781Z,5.97
2023-05-04T10:49:31.561Z,6.60
2023-05-04T10:52:09.927Z,5.90
2023-05-04T10:54:38.131Z,5.93
2023-05-04T10:57:07.192Z,5.50
2023-05-04T10:59:37.023Z,6.10
2023-05-04T11:02:06.729Z,6.07
2023-05-04T11:04:35.001Z,5.97
2023-05-04T11:07:05.100Z,5.53
2023-05-04T11:09:37.807Z,5.70
2023-05-04T11:12:06.175Z,5.10
2023-05-04T11:14:37.720Z,5.17
2023-05-04T11:17:26.578Z,5.47
2023-05-04T11:19:55.141Z,5.13
2023-05-04T11:22:24.129Z,4.90
2023-05-04T11:24:52.849Z,5.53
2023-05-04T11:27:23.454Z,5.17
2023-05-04T11:29:58.056Z,4.93
2023-05-04T11:32:37.330Z,5.30
2023-05-04T11:35:06.817Z,4.25
2023-05-04T11:37:39.388Z,4.80
2023-05-04T11:40:10.842Z,4.30
2023-05-04T11:42:39.928Z,4.25
2023-05-04T11:45:09.818Z,4.47
2023-05-04T11:47:39.419Z,4.68
2023-05-04T11:50:08.913Z,3.97
2023-05-04T11:52:36.945Z,4.45
2023-05-04T11:55:05.226Z,4.47
2023-05-04T11:57:33.251Z,4.55
2023-05-04T12:00:01.028Z,3.93
2023-05-04T12:02:28.877Z,4.60
2023-05-04T12:04:58.073Z,3.90
2023-05-04T12:07:26.180Z,3.88
2023-05-04T12:09:53.998Z,4.07
2023-05-04T12:12:22.333Z,4.35
2023-05-04T12:14:51.275Z,4.15
2023-05-04T12:17:20.359Z,4.70
2023-05-04T12:19:49.150Z,5.60
2023-05-04T12:22:18.492Z,4.82
2023-05-04T12:24:46.294Z,4.50
2023-05-04T12:27:14.748Z,4.50
2023-05-04T12:29:42.515Z,4.15
2023-05-04T12:32:10.439Z,3.80
2023-05-04T12:34:38.474Z,4.30
2023-05-04T12:37:06.340Z,4.05
2023-05-04T12:39:35.549Z,4.00
2023-05-04T12:42:04.268Z,4.85
2023-05-04T12:44:33.365Z,4.50
2023-05-04T12:47:01.211Z,4.50
2023-05-04T12:49:28.993Z,4.25
2023-05-04T12:51:58.173Z,4.20
2023-05-04T12:54:26.040Z,4.13
2023-05-04T12:56:55.289Z,4.03
2023-05-04T12:59:23.557Z,4.07
2023-05-04T13:01:51.459Z,3.78
2023-05-04T13:04:19.673Z,4.28
2023-05-04T13:06:48.461Z,4.25
2023-05-04T13:09:16.490Z,3.72
2023-05-04T13:11:44.721Z,3.30
2023-05-04T13:14:14.571Z,4.05
2023-05-04T13:16:42.362Z,3.50
2023-05-04T13:19:10.146Z,3.60
2023-05-04T13:21:37.872Z,3.70
2023-05-04T13:24:06.412Z,3.50
2023-05-04T13:26:34.204Z,3.20
2023-05-04T13:29:03.514Z,3.33
2023-05-04T13:31:32.867Z,3.90
2023-05-04T13:34:00.699Z,3.35
2023-05-04T13:36:28.451Z,4.07
2023-05-04T13:38:56.222Z,3.13
2023-05-04T13:41:24.570Z,3.95
2023-05-04T13:43:52.353Z,3.38
2023-05-04T13:46:20.232Z,3.08
2023-05-04T13:48:49.388Z,3.08
2023-05-04T13:51:17.232Z,3.55
2023-05-04T13:53:44.959Z,3.42
2023-05-04T13:56:12.731Z,3.28
2023-05-04T13:58:40.513Z,3.28
2023-05-04T14:01:08.366Z,3.40
2023-05-04T14:03:36.126Z,3.10
2023-05-04T14:06:05.545Z,3.10
2023-05-04T14:08:33.310Z,2.90
2023-05-04T14:11:01.099Z,3.20
2023-05-04T14:13:28.880Z,3.30
2023-05-04T14:15:58.358Z,2.90
2023-05-04T14:18:26.677Z,3.08
2023-05-04T14:20:54.440Z,3.20
2023-05-04T14:23:23.535Z,3.53
2023-05-04T14:25:51.788Z,3.90
2023-05-04T14:28:19.715Z,3.97
2023-05-04T14:30:47.510Z,3.53
2023-05-04T14:33:15.308Z,3.38
2023-05-04T14:35:43.888Z,3.92
2023-05-04T14:38:12.524Z,4.07
2023-05-04T14:40:41.641Z,3.70
2023-05-04T14:43:09.405Z,3.25
2023-05-04T14:45:37.605Z,3.38
2023-05-04T14:48:05.955Z,3.90
2023-05-04T14:50:33.776Z,3.63
2023-05-04T14:53:01.633Z,4.18
2023-05-04T14:55:29.450Z,3.90
2023-05-04T14:57:58.547Z,3.60
2023-05-04T15:00:26.441Z,3.35
2023-05-04T15:02:54.262Z,3.30
2023-05-04T15:05:22.125Z,3.47
2023-05-04T15:07:49.915Z,3.42
2023-05-04T15:10:17.730Z,3.38
2023-05-04T15:12:45.848Z,3.38
2023-05-04T15:15:15.290Z,3.30
2023-05-04T15:17:43.111Z,3.83
2023-05-04T15:20:11.832Z,5.70
2023-05-04T15:22:39.622Z,3.25
2023-05-04T15:25:08.846Z,3.33
2023-05-04T15:27:37.971Z,2.60
2023-05-04T15:30:07.681Z,2.92
2023-05-04T15:32:36.924Z,2.90
2023-05-04T15:35:06.338Z,3.22
2023-05-04T15:37:34.490Z,8.18
2023-05-04T15:40:02.836Z,2.88
2023-05-04T15:42:30.790Z,7.93
2023-05-04T15:44:58.649Z,3.97
2023-05-04T15:47:26.948Z,2.38
2023-05-04T15:49:56.176Z,2.20
2023-05-04T15:52:23.908Z,2.65
2023-05-04T15:54:51.719Z,2.25
2023-05-04T15:57:19.480Z,2.30
2023-05-04T15:59:47.733Z,2.30
2023-05-04T16:02:15.650Z,2.28
2023-05-04T16:04:43.417Z,2.30
2023-05-04T16:07:12.550Z,2.60
2023-05-04T16:09:40.428Z,2.40
2023-05-04T16:12:08.749Z,2.50
2023-05-04T16:14:37.044Z,2.28
2023-05-04T16:17:04.945Z,2.38
2023-05-04T16:19:32.874Z,2.40
2023-05-04T16:22:01.302Z,2.05
2023-05-04T16:24:30.464Z,2.60
2023-05-04T16:26:58.249Z,2.78
2023-05-04T16:29:25.996Z,2.80
2023-05-04T16:31:53.793Z,2.60
2023-05-04T16:34:21.542Z,2.42
2023-05-04T16:36:49.341Z,2.47
2023-05-04T16:39:18.753Z,2.65
2023-05-04T16:41:48.410Z,2.53
2023-05-04T16:44:16.553Z,2.50
2023-05-04T16:46:44.467Z,2.60
2023-05-04T16:49:14.667Z,2.42
2023-05-04T16:51:43.415Z,2.20
2023-05-04T16:54:11.358Z,2.58
2023-05-04T16:56:39.177Z,2.95
2023-05-04T16:59:08.434Z,2.42
2023-05-04T17:01:36.278Z,2.60
2023-05-04T17:04:04.222Z,2.65
2023-05-04T17:06:32.251Z,2.65
2023-05-04T17:09:00.161Z,2.28
2023-05-04T17:11:27.955Z,2.60
2023-05-04T17:13:56.191Z,2.50
2023-05-04T17:16:25.396Z,2.70
2023-05-04T17:18:53.182Z,2.72
2023-05-04T17:21:20.934Z,2.50
2023-05-04T17:23:48.690Z,2.35
2023-05-04T17:26:16.485Z,2.20
2023-05-04T17:28:44.395Z,2.60
2023-05-04T17:31:12.751Z,2.35
2023-05-04T17:33:41.967Z,2.53
2023-05-04T17:36:12.310Z,2.53
2023-05-04T17:38:40.338Z,3.00
2023-05-04T17:41:09.832Z,2.90
2023-05-04T17:43:38.162Z,2.50
2023-05-04T17:46:06.641Z,2.40
2023-05-04T17:48:36.348Z,2.60
2023-05-04T17:51:08.717Z,2.50
2023-05-04T17:53:36.783Z,2.53
2023-05-04T17:56:04.975Z,2.78
2023-05-04T17:58:32.735Z,2.60
2023-05-04T18:01:00.512Z,2.40
2023-05-04T18:03:28.345Z,3.10
2023-05-04T18:05:56.128Z,2.55
2023-05-04T18:08:25.332Z,2.67
2023-05-04T18:10:53.317Z,2.83
2023-05-04T18:13:21.167Z,2.47
2023-05-04T18:15:49.097Z,2.17
2023-05-04T18:18:16.939Z,2.60
2023-05-04T18:20:44.709Z,2.58
2023-05-04T18:23:12.516Z,2.53
2023-05-04T18:25:41.692Z,2.60
2023-05-04T18:28:09.451Z,2.63
2023-05-04T18:30:37.611Z,2.65
2023-05-04T18:33:05.619Z,2.70
2023-05-04T18:35:33.637Z,2.92
2023-05-04T18:38:01.512Z,3.10
2023-05-04T18:40:29.463Z,3.00
2023-05-04T18:42:58.664Z,2.92
2023-05-04T18:45:26.786Z,2.60
2023-05-04T18:47:54.635Z,3.30
2023-05-04T18:50:22.473Z,2.97
2023-05-04T18:52:50.271Z,2.63
2023-05-04T18:55:18.086Z,2.88
2023-05-04T18:57:45.973Z,3.30
2023-05-04T19:00:15.730Z,3.33
2023-05-04T19:02:43.511Z,2.63
2023-05-04T19:05:13.037Z,2.70
2023-05-04T19:07:42.383Z,2.50
2023-05-04T19:10:10.871Z,2.40
2023-05-04T19:12:38.671Z,2.97
2023-05-04T19:15:07.713Z,3.00
2023-05-04T19:17:37.117Z,2.50
2023-05-04T19:20:05.876Z,2.67
2023-05-04T19:22:33.874Z,2.70
2023-05-04T19:25:01.660Z,2.53
2023-05-04T19:27:29.526Z,2.43
2023-05-04T19:29:57.298Z,2.50
2023-05-04T19:32:28.581Z,2.40
2023-05-04T19:34:57.990Z,2.40
2023-05-04T19:37:25.760Z,2.90
2023-05-04T19:39:53.531Z,2.70
2023-05-04T19:42:21.351Z,2.70
2023-05-04T19:44:49.309Z,2.63
2023-05-04T19:47:17.199Z,2.43
2023-05-04T19:49:47.514Z,2.50
2023-05-04T19:52:16.842Z,2.77
2023-05-04T19:54:48.264Z,2.43
2023-05-04T19:57:16.076Z,2.60
2023-05-04T19:59:45.463Z,2.60
2023-05-04T20:02:14.894Z,2.83
2023-05-04T20:04:42.743Z,2.43
2023-05-04T20:07:10.526Z,2.70
2023-05-04T20:09:39.907Z,2.83
2023-05-04T20:12:08.284Z,2.87
2023-05-04T20:14:36.241Z,2.50
2023-05-04T20:17:04.466Z,2.63
2023-05-04T20:19:32.397Z,2.83
2023-05-04T20:22:00.152Z,2.90
2023-05-04T20:24:27.938Z,3.00
2023-05-04T20:26:58.353Z,2.60
2023-05-04T20:29:26.617Z,2.70
2023-05-04T20:31:54.526Z,2.40
2023-05-04T20:34:22.553Z,2.57
2023-05-04T20:36:50.587Z,3.17
2023-05-04T20:39:20.041Z,2.60
2023-05-04T20:41:49.739Z,2.67
2023-05-04T20:44:19.147Z,2.70
2023-05-04T20:46:47.209Z,2.70
2023-05-04T20:49:15.233Z,2.73
2023-05-04T20:51:43.212Z,2.97
2023-05-04T20:54:11.691Z,2.63
2023-05-04T20:56:39.713Z,2.33
2023-05-04T20:59:08.214Z,2.50
2023-05-04T21:01:39.260Z,2.87
2023-05-04T21:04:07.656Z,2.90
2023-05-04T21:06:35.501Z,2.53
2023-05-04T21:09:04.364Z,2.80
2023-05-04T21:11:32.499Z,2.70
2023-05-04T21:14:00.360Z,3.00
2023-05-04T21:16:28.253Z,2.73
2023-05-04T21:18:57.748Z,2.50
2023-05-04T21:21:25.625Z,2.50
2023-05-04T21:23:53.382Z,3.00
2023-05-04T21:26:22.037Z,2.33
2023-05-04T21:28:50.917Z,2.60
2023-05-04T21:31:18.870Z,2.30
2023-05-04T21:33:47.276Z,2.40
2023-05-04T21:36:16.943Z,2.87
2023-05-04T21:38:44.755Z,2.60
2023-05-04T21:41:13.672Z,2.43
2023-05-04T21:43:41.728Z,2.60
2023-05-04T21:46:09.866Z,3.27
2023-05-04T21:48:37.649Z,2.60
2023-05-04T21:51:05.857Z,2.70
2023-05-04T21:53:35.288Z,2.70
2023-05-04T21:56:07.534Z,2.50
2023-05-04T21:58:37.134Z,2.73
2023-05-04T22:01:05.729Z,2.37
2023-05-04T22:03:33.688Z,2.57
2023-05-04T22:06:01.558Z,2.70
2023-05-04T22:08:30.288Z,2.70
2023-05-04T22:10:59.748Z,2.80
2023-05-04T22:13:27.873Z,2.13
2023-05-04T22:15:56.197Z,2.50
2023-05-04T22:18:24.600Z,2.63
2023-05-04T22:20:52.668Z,2.60
2023-05-04T22:23:20.434Z,2.50
2023-05-04T22:25:48.458Z,2.20
2023-05-04T22:28:17.826Z,2.57
2023-05-04T22:30:46.602Z,2.47
2023-05-04T22:33:14.587Z,2.60
2023-05-04T22:35:42.636Z,2.50
2023-05-04T22:38:10.998Z,2.30
2023-05-04T22:40:40.437Z,2.53
2023-05-04T22:43:08.573Z,2.77
2023-05-04T22:45:38.902Z,2.40
2023-05-04T22:48:06.777Z,2.73
2023-05-04T22:50:34.583Z,2.53
2023-05-04T22:53:02.618Z,2.27
2023-05-04T22:55:30.410Z,2.53
2023-05-04T22:57:58.231Z,2.67
2023-05-04T23:00:26.142Z,3.07
2023-05-04T23:02:55.380Z,2.90
2023-05-04T23:05:23.378Z,2.43
2023-05-04T23:07:51.306Z,2.33
2023-05-04T23:10:19.189Z,2.80
2023-05-04T23:12:47.363Z,2.50
2023-05-04T23:15:15.258Z,2.40
2023-05-04T23:17:43.033Z,2.57
2023-05-04T23:20:13.400Z,2.80
2023-05-04T23:22:41.348Z,2.40
2023-05-04T23:25:09.811Z,2.50
2023-05-04T23:27:37.814Z,2.80
2023-05-04T23:30:07.229Z,2.50
2023-05-04T23:32:35.222Z,2.23
2023-05-04T23:35:03.225Z,2.60
2023-05-04T23:37:32.830Z,2.63
2023-05-04T23:40:00.717Z,2.60
2023-05-04T23:42:28.501Z,2.63
2023-05-04T23:44:56.636Z,2.50
2023-05-04T23:47:24.537Z,2.70
2023-05-04T23:49:52.421Z,2.40
2023-05-04T23:52:20.174Z,2.70
2023-05-04T23:54:53.779Z,2.30
2023-05-04T23:57:21.739Z,2.93
2023-05-04T23:59:49.548Z,2.60
